sensor_id;sensor_type;location;lat;lon;timestamp;temperature;humidity
7708;DHT22;3896;48.758;8.888;2024-02-21T00:01:22;6.30;99.90
7708;DHT22;3896;48.758;8.888;2024-02-21T00:03:48;6.30;99.90
7708;DHT22;3896;48.758;8.888;2024-02-21T00:06:13;6.30;99.90
7708;DHT22;3896;48.758;8.888;2024-02-21T00:08:39;6.30;99.90
7708;DHT22;3896;48.758;8.888;2024-02-21T00:11:04;6.30;99.90
7708;DHT22;3896;48.758;8.888;2024-02-21T00:13:30;6.30;99.90
7708;DHT22;3896;48.758;8.888;2024-02-21T00:15:55;6.30;99.90
7708;DHT22;3896;48.758;8.888;2024-02-21T00:18:21;6.30;99.90
7708;DHT22;3896;48.758;8.888;2024-02-21T00:20:47;6.40;99.90
7708;DHT22;3896;48.758;8.888;2024-02-21T00:23:12;6.40;99.90
7708;DHT22;3896;48.758;8.888;2024-02-21T00:25:38;6.40;99.90
7708;DHT22;3896;48.758;8.888;2024-02-21T00:28:04;6.40;99.90
7708;DHT22;3896;48.758;8.888;2024-02-21T00:30:31;6.40;99.90
7708;DHT22;3896;48.758;8.888;2024-02-21T00:32:56;6.40;99.90
7708;DHT22;3896;48.758;8.888;2024-02-21T00:35:22;6.40;99.90
7708;DHT22;3896;48.758;8.888;2024-02-21T00:37:48;6.40;99.90
7708;DHT22;3896;48.758;8.888;2024-02-21T00:40:13;6.40;99.90
7708;DHT22;3896;48.758;8.888;2024-02-21T00:42:45;6.50;99.90
7708;DHT22;3896;48.758;8.888;2024-02-21T00:45:11;6.50;99.90
7708;DHT22;3896;48.758;8.888;2024-02-21T00:47:36;6.40;99.90
7708;DHT22;3896;48.758;8.888;2024-02-21T00:50:02;6.40;99.90
7708;DHT22;3896;48.758;8.888;2024-02-21T00:52:27;6.50;99.90
7708;DHT22;3896;48.758;8.888;2024-02-21T00:54:53;6.40;99.90
7708;DHT22;3896;48.758;8.888;2024-02-21T00:57:18;6.40;99.90
7708;DHT22;3896;48.758;8.888;2024-02-21T00:59:44;6.50;99.90
7708;DHT22;3896;48.758;8.888;2024-02-21T01:02:10;6.50;99.90
7708;DHT22;3896;48.758;8.888;2024-02-21T01:04:35;6.50;99.90
7708;DHT22;3896;48.758;8.888;2024-02-21T01:07:01;6.50;99.90
7708;DHT22;3896;48.758;8.888;2024-02-21T01:09:27;6.50;99.90
7708;DHT22;3896;48.758;8.888;2024-02-21T01:11:53;6.50;99.90
7708;DHT22;3896;48.758;8.888;2024-02-21T01:14:18;6.50;99.90
7708;DHT22;3896;48.758;8.888;2024-02-21T01:16:44;6.50;99.90
7708;DHT22;3896;48.758;8.888;2024-02-21T01:19:09;6.50;99.90
7708;DHT22;3896;48.758;8.888;2024-02-21T01:21:35;6.50;99.90
7708;DHT22;3896;48.758;8.888;2024-02-21T01:24:00;6.50;99.90
7708;DHT22;3896;48.758;8.888;2024-02-21T01:26:26;6.50;99.90
7708;DHT22;3896;48.758;8.888;2024-02-21T01:28:51;6.50;99.90
7708;DHT22;3896;48.758;8.888;2024-02-21T01:31:17;6.50;99.90
7708;DHT22;3896;48.758;8.888;2024-02-21T01:33:43;6.60;99.90
7708;DHT22;3896;48.758;8.888;2024-02-21T01:36:08;6.60;99.90
7708;DHT22;3896;48.758;8.888;2024-02-21T01:38:34;6.60;99.90
7708;DHT22;3896;48.758;8.888;2024-02-21T01:41:00;6.60;99.90
7708;DHT22;3896;48.758;8.888;2024-02-21T01:43:26;6.50;99.90
7708;DHT22;3896;48.758;8.888;2024-02-21T01:45:56;6.60;99.90
7708;DHT22;3896;48.758;8.888;2024-02-21T01:48:22;6.60;99.90
7708;DHT22;3896;48.758;8.888;2024-02-21T01:50:49;6.60;99.90
7708;DHT22;3896;48.758;8.888;2024-02-21T01:53:18;6.60;99.90
7708;DHT22;3896;48.758;8.888;2024-02-21T01:55:45;6.60;99.90
7708;DHT22;3896;48.758;8.888;2024-02-21T01:58:13;6.60;99.90
7708;DHT22;3896;48.758;8.888;2024-02-21T02:00:43;6.60;99.90
7708;DHT22;3896;48.758;8.888;2024-02-21T02:03:12;6.60;99.90
7708;DHT22;3896;48.758;8.888;2024-02-21T02:05:47;6.70;99.90
7708;DHT22;3896;48.758;8.888;2024-02-21T02:08:18;6.70;99.90
7708;DHT22;3896;48.758;8.888;2024-02-21T02:10:44;6.70;99.90
7708;DHT22;3896;48.758;8.888;2024-02-21T02:13:10;6.70;99.90
7708;DHT22;3896;48.758;8.888;2024-02-21T02:15:43;6.70;99.90
7708;DHT22;3896;48.758;8.888;2024-02-21T02:18:09;6.70;99.90
7708;DHT22;3896;48.758;8.888;2024-02-21T02:20:35;6.70;99.90
7708;DHT22;3896;48.758;8.888;2024-02-21T02:23:09;6.70;99.90
7708;DHT22;3896;48.758;8.888;2024-02-21T02:25:39;6.70;99.90
7708;DHT22;3896;48.758;8.888;2024-02-21T02:28:06;6.70;99.90
7708;DHT22;3896;48.758;8.888;2024-02-21T02:30:32;6.70;99.90
7708;DHT22;3896;48.758;8.888;2024-02-21T02:32:59;6.70;99.90
7708;DHT22;3896;48.758;8.888;2024-02-21T02:35:25;6.80;99.90
7708;DHT22;3896;48.758;8.888;2024-02-21T02:37:50;6.80;99.90
7708;DHT22;3896;48.758;8.888;2024-02-21T02:40:17;6.80;99.90
7708;DHT22;3896;48.758;8.888;2024-02-21T02:42:43;6.80;99.90
7708;DHT22;3896;48.758;8.888;2024-02-21T02:58:00;6.80;99.90
7708;DHT22;3896;48.758;8.888;2024-02-21T03:00:25;6.80;99.90
7708;DHT22;3896;48.758;8.888;2024-02-21T03:02:51;6.80;99.90
7708;DHT22;3896;48.758;8.888;2024-02-21T03:05:19;6.80;99.90
7708;DHT22;3896;48.758;8.888;2024-02-21T03:07:46;6.80;99.90
7708;DHT22;3896;48.758;8.888;2024-02-21T03:10:12;6.80;99.90
7708;DHT22;3896;48.758;8.888;2024-02-21T03:12:38;6.90;99.90
7708;DHT22;3896;48.758;8.888;2024-02-21T03:15:05;6.80;99.90
7708;DHT22;3896;48.758;8.888;2024-02-21T03:17:31;6.80;99.90
7708;DHT22;3896;48.758;8.888;2024-02-21T03:19:58;6.80;99.90
7708;DHT22;3896;48.758;8.888;2024-02-21T03:22:29;6.80;99.90
7708;DHT22;3896;48.758;8.888;2024-02-21T03:24:55;6.80;99.90
7708;DHT22;3896;48.758;8.888;2024-02-21T03:27:20;6.80;99.90
7708;DHT22;3896;48.758;8.888;2024-02-21T03:29:46;6.80;99.90
7708;DHT22;3896;48.758;8.888;2024-02-21T03:32:11;6.80;99.90
7708;DHT22;3896;48.758;8.888;2024-02-21T03:34:37;6.80;99.90
7708;DHT22;3896;48.758;8.888;2024-02-21T03:37:03;6.80;99.90
7708;DHT22;3896;48.758;8.888;2024-02-21T03:39:31;6.80;99.90
7708;DHT22;3896;48.758;8.888;2024-02-21T03:41:58;6.80;99.90
7708;DHT22;3896;48.758;8.888;2024-02-21T03:44:26;6.70;99.90
7708;DHT22;3896;48.758;8.888;2024-02-21T03:46:51;6.70;99.90
7708;DHT22;3896;48.758;8.888;2024-02-21T03:49:17;6.70;99.90
7708;DHT22;3896;48.758;8.888;2024-02-21T03:51:43;6.70;99.90
7708;DHT22;3896;48.758;8.888;2024-02-21T03:54:09;6.70;99.90
7708;DHT22;3896;48.758;8.888;2024-02-21T03:56:37;6.70;99.90
7708;DHT22;3896;48.758;8.888;2024-02-21T03:59:08;6.70;99.90
7708;DHT22;3896;48.758;8.888;2024-02-21T04:01:34;6.70;99.90
7708;DHT22;3896;48.758;8.888;2024-02-21T04:04:00;6.70;99.90
7708;DHT22;3896;48.758;8.888;2024-02-21T04:06:25;6.70;99.90
7708;DHT22;3896;48.758;8.888;2024-02-21T04:08:51;6.70;99.90
7708;DHT22;3896;48.758;8.888;2024-02-21T04:11:17;6.70;99.90
7708;DHT22;3896;48.758;8.888;2024-02-21T04:13:44;6.70;99.90
7708;DHT22;3896;48.758;8.888;2024-02-21T04:16:10;6.70;99.90
7708;DHT22;3896;48.758;8.888;2024-02-21T04:18:35;6.60;99.90
7708;DHT22;3896;48.758;8.888;2024-02-21T04:21:01;6.60;99.90
7708;DHT22;3896;48.758;8.888;2024-02-21T04:23:26;6.60;99.90
7708;DHT22;3896;48.758;8.888;2024-02-21T04:25:52;6.60;99.90
7708;DHT22;3896;48.758;8.888;2024-02-21T04:28:17;6.60;99.90
7708;DHT22;3896;48.758;8.888;2024-02-21T04:30:46;6.50;99.90
7708;DHT22;3896;48.758;8.888;2024-02-21T04:33:12;6.50;99.90
7708;DHT22;3896;48.758;8.888;2024-02-21T04:35:37;6.50;99.90
7708;DHT22;3896;48.758;8.888;2024-02-21T04:38:03;6.50;99.90
7708;DHT22;3896;48.758;8.888;2024-02-21T04:40:29;6.50;99.90
7708;DHT22;3896;48.758;8.888;2024-02-21T04:42:54;6.50;99.90
7708;DHT22;3896;48.758;8.888;2024-02-21T04:45:20;6.50;99.90
7708;DHT22;3896;48.758;8.888;2024-02-21T04:47:45;6.50;99.90
7708;DHT22;3896;48.758;8.888;2024-02-21T04:50:11;6.40;99.90
7708;DHT22;3896;48.758;8.888;2024-02-21T04:52:36;6.40;99.90
7708;DHT22;3896;48.758;8.888;2024-02-21T04:55:02;6.40;99.90
7708;DHT22;3896;48.758;8.888;2024-02-21T04:57:28;6.40;99.90
7708;DHT22;3896;48.758;8.888;2024-02-21T04:59:53;6.40;99.90
7708;DHT22;3896;48.758;8.888;2024-02-21T05:02:19;6.40;99.90
7708;DHT22;3896;48.758;8.888;2024-02-21T05:04:47;6.30;99.90
7708;DHT22;3896;48.758;8.888;2024-02-21T05:07:13;6.30;99.90
7708;DHT22;3896;48.758;8.888;2024-02-21T05:09:39;6.30;99.90
7708;DHT22;3896;48.758;8.888;2024-02-21T05:12:04;6.30;99.90
7708;DHT22;3896;48.758;8.888;2024-02-21T05:14:30;6.30;99.90
7708;DHT22;3896;48.758;8.888;2024-02-21T05:16:55;6.20;99.90
7708;DHT22;3896;48.758;8.888;2024-02-21T05:19:21;6.20;99.90
7708;DHT22;3896;48.758;8.888;2024-02-21T05:21:47;6.20;99.90
7708;DHT22;3896;48.758;8.888;2024-02-21T05:24:12;6.20;99.90
7708;DHT22;3896;48.758;8.888;2024-02-21T05:26:38;6.10;99.90
7708;DHT22;3896;48.758;8.888;2024-02-21T05:29:03;6.10;99.90
7708;DHT22;3896;48.758;8.888;2024-02-21T05:34:17;6.10;99.90
7708;DHT22;3896;48.758;8.888;2024-02-21T05:36:42;6.10;99.90
7708;DHT22;3896;48.758;8.888;2024-02-21T05:39:08;6.00;99.90
7708;DHT22;3896;48.758;8.888;2024-02-21T05:41:33;6.00;99.90
7708;DHT22;3896;48.758;8.888;2024-02-21T05:43:59;6.00;99.90
7708;DHT22;3896;48.758;8.888;2024-02-21T05:46:24;6.00;99.90
7708;DHT22;3896;48.758;8.888;2024-02-21T05:48:50;6.00;99.90
7708;DHT22;3896;48.758;8.888;2024-02-21T05:51:16;5.90;99.90
7708;DHT22;3896;48.758;8.888;2024-02-21T05:53:41;5.90;99.90
7708;DHT22;3896;48.758;8.888;2024-02-21T05:56:13;5.90;99.90
7708;DHT22;3896;48.758;8.888;2024-02-21T05:58:39;5.90;99.90
7708;DHT22;3896;48.758;8.888;2024-02-21T06:01:05;5.90;99.90
7708;DHT22;3896;48.758;8.888;2024-02-21T06:03:33;5.90;99.90
7708;DHT22;3896;48.758;8.888;2024-02-21T06:05:59;5.90;99.90
7708;DHT22;3896;48.758;8.888;2024-02-21T06:08:25;5.80;99.90
7708;DHT22;3896;48.758;8.888;2024-02-21T06:10:50;5.80;99.90
7708;DHT22;3896;48.758;8.888;2024-02-21T06:13:28;5.80;99.90
7708;DHT22;3896;48.758;8.888;2024-02-21T06:15:54;5.80;99.90
7708;DHT22;3896;48.758;8.888;2024-02-21T06:18:20;5.80;99.90
7708;DHT22;3896;48.758;8.888;2024-02-21T06:20:46;5.80;99.90
7708;DHT22;3896;48.758;8.888;2024-02-21T06:23:12;5.80;99.90
7708;DHT22;3896;48.758;8.888;2024-02-21T06:25:39;5.80;99.90
7708;DHT22;3896;48.758;8.888;2024-02-21T06:28:05;5.70;99.90
7708;DHT22;3896;48.758;8.888;2024-02-21T06:30:31;5.70;99.90
7708;DHT22;3896;48.758;8.888;2024-02-21T06:32:56;5.70;99.90
7708;DHT22;3896;48.758;8.888;2024-02-21T06:35:22;5.70;99.90
7708;DHT22;3896;48.758;8.888;2024-02-21T06:37:51;5.60;99.90
7708;DHT22;3896;48.758;8.888;2024-02-21T06:40:19;5.60;99.90
7708;DHT22;3896;48.758;8.888;2024-02-21T06:42:45;5.60;99.90
7708;DHT22;3896;48.758;8.888;2024-02-21T06:45:10;5.60;99.90
7708;DHT22;3896;48.758;8.888;2024-02-21T06:47:36;5.60;99.90
7708;DHT22;3896;48.758;8.888;2024-02-21T06:50:01;5.60;99.90
7708;DHT22;3896;48.758;8.888;2024-02-21T06:52:27;5.60;99.90
7708;DHT22;3896;48.758;8.888;2024-02-21T06:54:53;5.60;99.90
7708;DHT22;3896;48.758;8.888;2024-02-21T06:57:18;5.60;99.90
7708;DHT22;3896;48.758;8.888;2024-02-21T06:59:44;5.60;99.90
7708;DHT22;3896;48.758;8.888;2024-02-21T07:02:09;5.60;99.90
7708;DHT22;3896;48.758;8.888;2024-02-21T07:04:35;5.60;99.90
7708;DHT22;3896;48.758;8.888;2024-02-21T07:07:00;5.60;99.90
7708;DHT22;3896;48.758;8.888;2024-02-21T07:09:26;5.60;99.90
7708;DHT22;3896;48.758;8.888;2024-02-21T07:11:54;5.60;99.90
7708;DHT22;3896;48.758;8.888;2024-02-21T07:14:19;5.60;99.90
7708;DHT22;3896;48.758;8.888;2024-02-21T07:16:45;5.60;99.90
7708;DHT22;3896;48.758;8.888;2024-02-21T07:19:10;5.60;99.90
7708;DHT22;3896;48.758;8.888;2024-02-21T07:21:36;5.60;99.90
7708;DHT22;3896;48.758;8.888;2024-02-21T07:24:03;5.60;99.90
7708;DHT22;3896;48.758;8.888;2024-02-21T07:26:31;5.70;99.90
7708;DHT22;3896;48.758;8.888;2024-02-21T07:28:56;5.70;99.90
7708;DHT22;3896;48.758;8.888;2024-02-21T07:31:22;5.70;99.90
7708;DHT22;3896;48.758;8.888;2024-02-21T07:33:47;5.70;99.90
7708;DHT22;3896;48.758;8.888;2024-02-21T07:36:15;5.80;99.90
7708;DHT22;3896;48.758;8.888;2024-02-21T07:38:41;5.80;99.90
7708;DHT22;3896;48.758;8.888;2024-02-21T07:41:07;5.90;99.90
7708;DHT22;3896;48.758;8.888;2024-02-21T07:43:32;5.90;99.90
7708;DHT22;3896;48.758;8.888;2024-02-21T07:45:58;5.90;99.90
7708;DHT22;3896;48.758;8.888;2024-02-21T07:48:23;6.00;99.90
7708;DHT22;3896;48.758;8.888;2024-02-21T07:50:52;6.00;99.90
7708;DHT22;3896;48.758;8.888;2024-02-21T07:53:18;6.00;99.90
7708;DHT22;3896;48.758;8.888;2024-02-21T07:55:43;6.10;99.90
7708;DHT22;3896;48.758;8.888;2024-02-21T07:58:09;6.10;99.90
7708;DHT22;3896;48.758;8.888;2024-02-21T08:00:34;6.20;99.90
7708;DHT22;3896;48.758;8.888;2024-02-21T08:03:00;6.20;99.90
7708;DHT22;3896;48.758;8.888;2024-02-21T08:05:25;6.30;99.90
7708;DHT22;3896;48.758;8.888;2024-02-21T08:07:51;6.40;99.90
7708;DHT22;3896;48.758;8.888;2024-02-21T08:10:16;6.40;99.90
7708;DHT22;3896;48.758;8.888;2024-02-21T08:12:42;6.50;99.90
7708;DHT22;3896;48.758;8.888;2024-02-21T08:15:08;6.60;99.90
7708;DHT22;3896;48.758;8.888;2024-02-21T08:17:36;6.60;99.90
7708;DHT22;3896;48.758;8.888;2024-02-21T08:20:02;6.70;99.90
7708;DHT22;3896;48.758;8.888;2024-02-21T08:22:28;6.80;99.90
7708;DHT22;3896;48.758;8.888;2024-02-21T08:24:53;6.90;99.90
7708;DHT22;3896;48.758;8.888;2024-02-21T08:27:19;6.90;99.90
7708;DHT22;3896;48.758;8.888;2024-02-21T08:29:44;7.00;99.90
7708;DHT22;3896;48.758;8.888;2024-02-21T08:32:10;7.10;99.90
7708;DHT22;3896;48.758;8.888;2024-02-21T08:34:36;7.20;99.90
7708;DHT22;3896;48.758;8.888;2024-02-21T08:37:01;7.30;99.90
7708;DHT22;3896;48.758;8.888;2024-02-21T08:39:27;7.30;99.90
7708;DHT22;3896;48.758;8.888;2024-02-21T08:41:55;7.40;99.90
7708;DHT22;3896;48.758;8.888;2024-02-21T08:44:22;7.50;99.90
7708;DHT22;3896;48.758;8.888;2024-02-21T08:46:49;7.50;99.90
7708;DHT22;3896;48.758;8.888;2024-02-21T08:49:15;7.60;99.90
7708;DHT22;3896;48.758;8.888;2024-02-21T08:51:41;7.70;99.90
7708;DHT22;3896;48.758;8.888;2024-02-21T08:54:08;7.80;99.90
7708;DHT22;3896;48.758;8.888;2024-02-21T08:56:33;7.80;99.90
7708;DHT22;3896;48.758;8.888;2024-02-21T08:59:00;7.90;99.90
7708;DHT22;3896;48.758;8.888;2024-02-21T09:01:26;8.00;99.90
7708;DHT22;3896;48.758;8.888;2024-02-21T09:03:52;8.00;99.90
7708;DHT22;3896;48.758;8.888;2024-02-21T09:06:19;8.10;99.90
7708;DHT22;3896;48.758;8.888;2024-02-21T09:08:45;8.20;99.90
7708;DHT22;3896;48.758;8.888;2024-02-21T09:11:11;8.30;99.90
7708;DHT22;3896;48.758;8.888;2024-02-21T09:13:38;8.30;99.90
7708;DHT22;3896;48.758;8.888;2024-02-21T09:16:03;8.40;99.90
7708;DHT22;3896;48.758;8.888;2024-02-21T09:18:29;8.50;99.90
7708;DHT22;3896;48.758;8.888;2024-02-21T09:20:55;8.50;99.90
7708;DHT22;3896;48.758;8.888;2024-02-21T09:23:23;8.60;99.90
7708;DHT22;3896;48.758;8.888;2024-02-21T09:25:49;8.70;99.90
7708;DHT22;3896;48.758;8.888;2024-02-21T09:28:14;8.80;99.90
7708;DHT22;3896;48.758;8.888;2024-02-21T09:30:40;8.90;99.90
7708;DHT22;3896;48.758;8.888;2024-02-21T09:33:05;8.90;99.90
7708;DHT22;3896;48.758;8.888;2024-02-21T09:35:31;9.00;99.50
7708;DHT22;3896;48.758;8.888;2024-02-21T09:37:59;9.10;99.10
7708;DHT22;3896;48.758;8.888;2024-02-21T09:40:24;9.20;98.80
7708;DHT22;3896;48.758;8.888;2024-02-21T09:43:00;9.30;98.30
7708;DHT22;3896;48.758;8.888;2024-02-21T09:45:28;9.40;98.10
7708;DHT22;3896;48.758;8.888;2024-02-21T09:50:44;9.60;97.40
7708;DHT22;3896;48.758;8.888;2024-02-21T09:53:12;9.70;96.90
7708;DHT22;3896;48.758;8.888;2024-02-21T09:55:42;9.80;97.20
7708;DHT22;3896;48.758;8.888;2024-02-21T09:58:09;9.90;98.20
7708;DHT22;3896;48.758;8.888;2024-02-21T10:00:37;10.10;97.10
7708;DHT22;3896;48.758;8.888;2024-02-21T10:03:03;10.20;96.00
7708;DHT22;3896;48.758;8.888;2024-02-21T10:05:36;10.40;95.40
7708;DHT22;3896;48.758;8.888;2024-02-21T10:08:02;10.50;94.60
7708;DHT22;3896;48.758;8.888;2024-02-21T10:10:28;10.70;94.10
7708;DHT22;3896;48.758;8.888;2024-02-21T10:12:56;10.80;92.80
7708;DHT22;3896;48.758;8.888;2024-02-21T10:15:23;10.90;92.50
7708;DHT22;3896;48.758;8.888;2024-02-21T10:18:00;11.10;91.80
7708;DHT22;3896;48.758;8.888;2024-02-21T10:20:26;11.10;91.40
7708;DHT22;3896;48.758;8.888;2024-02-21T10:23:03;11.20;90.80
7708;DHT22;3896;48.758;8.888;2024-02-21T10:25:33;11.30;90.60
7708;DHT22;3896;48.758;8.888;2024-02-21T10:27:59;11.50;89.80
7708;DHT22;3896;48.758;8.888;2024-02-21T10:30:24;11.60;89.10
7708;DHT22;3896;48.758;8.888;2024-02-21T10:32:54;11.70;88.70
7708;DHT22;3896;48.758;8.888;2024-02-21T10:35:29;11.80;88.10
7708;DHT22;3896;48.758;8.888;2024-02-21T10:37:59;11.90;87.60
7708;DHT22;3896;48.758;8.888;2024-02-21T10:40:29;12.00;85.90
7708;DHT22;3896;48.758;8.888;2024-02-21T10:43:02;12.10;84.80
7708;DHT22;3896;48.758;8.888;2024-02-21T10:45:30;12.20;84.80
7708;DHT22;3896;48.758;8.888;2024-02-21T10:48:11;12.30;83.50
7708;DHT22;3896;48.758;8.888;2024-02-21T10:50:52;12.40;83.10
7708;DHT22;3896;48.758;8.888;2024-02-21T10:58:37;12.60;80.60
7708;DHT22;3896;48.758;8.888;2024-02-21T11:01:05;12.70;80.50
7708;DHT22;3896;48.758;8.888;2024-02-21T11:03:31;12.80;80.40
7708;DHT22;3896;48.758;8.888;2024-02-21T11:05:58;12.90;80.10
7708;DHT22;3896;48.758;8.888;2024-02-21T11:08:23;12.90;79.20
7708;DHT22;3896;48.758;8.888;2024-02-21T11:10:50;13.00;79.10
7708;DHT22;3896;48.758;8.888;2024-02-21T11:13:16;13.10;78.50
7708;DHT22;3896;48.758;8.888;2024-02-21T11:15:42;13.10;77.90
7708;DHT22;3896;48.758;8.888;2024-02-21T11:18:07;13.20;77.20
7708;DHT22;3896;48.758;8.888;2024-02-21T11:20:36;13.20;76.90
7708;DHT22;3896;48.758;8.888;2024-02-21T11:23:02;13.30;76.20
7708;DHT22;3896;48.758;8.888;2024-02-21T11:25:29;13.30;75.60
7708;DHT22;3896;48.758;8.888;2024-02-21T11:28:00;13.40;75.10
7708;DHT22;3896;48.758;8.888;2024-02-21T11:30:45;13.50;74.70
7708;DHT22;3896;48.758;8.888;2024-02-21T11:33:12;13.50;74.60
7708;DHT22;3896;48.758;8.888;2024-02-21T11:35:37;13.60;73.20
7708;DHT22;3896;48.758;8.888;2024-02-21T11:38:13;13.70;72.30
7708;DHT22;3896;48.758;8.888;2024-02-21T11:40:45;13.70;71.40
7708;DHT22;3896;48.758;8.888;2024-02-21T11:43:12;13.80;70.00
7708;DHT22;3896;48.758;8.888;2024-02-21T11:45:37;13.90;69.40
7708;DHT22;3896;48.758;8.888;2024-02-21T11:48:06;13.90;68.80
7708;DHT22;3896;48.758;8.888;2024-02-21T11:50:31;14.00;68.50
7708;DHT22;3896;48.758;8.888;2024-02-21T11:52:57;14.00;67.30
7708;DHT22;3896;48.758;8.888;2024-02-21T11:55:23;14.00;66.20
7708;DHT22;3896;48.758;8.888;2024-02-21T11:57:49;14.00;66.00
7708;DHT22;3896;48.758;8.888;2024-02-21T12:00:16;14.10;65.10
7708;DHT22;3896;48.758;8.888;2024-02-21T12:02:43;14.10;64.60
7708;DHT22;3896;48.758;8.888;2024-02-21T12:05:10;14.10;64.30
7708;DHT22;3896;48.758;8.888;2024-02-21T12:07:37;14.20;64.90
7708;DHT22;3896;48.758;8.888;2024-02-21T12:10:12;14.30;63.90
7708;DHT22;3896;48.758;8.888;2024-02-21T12:12:38;14.30;63.40
7708;DHT22;3896;48.758;8.888;2024-02-21T12:15:05;14.40;63.20
7708;DHT22;3896;48.758;8.888;2024-02-21T12:17:33;14.40;63.10
7708;DHT22;3896;48.758;8.888;2024-02-21T12:19:59;14.50;63.10
7708;DHT22;3896;48.758;8.888;2024-02-21T12:22:25;14.60;62.80
7708;DHT22;3896;48.758;8.888;2024-02-21T12:24:51;14.70;63.00
7708;DHT22;3896;48.758;8.888;2024-02-21T12:27:16;14.70;62.10
7708;DHT22;3896;48.758;8.888;2024-02-21T12:29:42;14.80;62.20
7708;DHT22;3896;48.758;8.888;2024-02-21T12:32:07;14.80;61.70
7708;DHT22;3896;48.758;8.888;2024-02-21T12:34:33;14.90;61.30
7708;DHT22;3896;48.758;8.888;2024-02-21T12:36:59;14.90;61.00
7708;DHT22;3896;48.758;8.888;2024-02-21T12:39:24;15.00;59.80
7708;DHT22;3896;48.758;8.888;2024-02-21T12:41:52;15.10;59.60
7708;DHT22;3896;48.758;8.888;2024-02-21T12:44:18;15.10;59.10
7708;DHT22;3896;48.758;8.888;2024-02-21T12:46:44;15.20;59.00
7708;DHT22;3896;48.758;8.888;2024-02-21T12:49:11;15.20;58.60
7708;DHT22;3896;48.758;8.888;2024-02-21T12:51:37;15.30;58.00
7708;DHT22;3896;48.758;8.888;2024-02-21T12:54:03;15.30;57.20
7708;DHT22;3896;48.758;8.888;2024-02-21T12:56:29;15.30;56.80
7708;DHT22;3896;48.758;8.888;2024-02-21T12:58:56;15.30;56.40
7708;DHT22;3896;48.758;8.888;2024-02-21T13:01:21;15.30;55.40
7708;DHT22;3896;48.758;8.888;2024-02-21T13:03:47;15.40;55.00
7708;DHT22;3896;48.758;8.888;2024-02-21T13:06:13;15.40;54.40
7708;DHT22;3896;48.758;8.888;2024-02-21T13:08:39;15.30;54.20
7708;DHT22;3896;48.758;8.888;2024-02-21T13:11:05;15.40;54.70
7708;DHT22;3896;48.758;8.888;2024-02-21T13:13:31;15.40;54.50
7708;DHT22;3896;48.758;8.888;2024-02-21T13:16:00;15.40;55.00
7708;DHT22;3896;48.758;8.888;2024-02-21T13:18:26;15.40;55.00
7708;DHT22;3896;48.758;8.888;2024-02-21T13:20:51;15.40;54.60
7708;DHT22;3896;48.758;8.888;2024-02-21T13:23:17;15.40;54.60
7708;DHT22;3896;48.758;8.888;2024-02-21T13:25:42;15.40;53.70
7708;DHT22;3896;48.758;8.888;2024-02-21T13:28:09;15.40;53.40
7708;DHT22;3896;48.758;8.888;2024-02-21T13:30:35;15.40;53.30
7708;DHT22;3896;48.758;8.888;2024-02-21T13:33:01;15.40;52.50
7708;DHT22;3896;48.758;8.888;2024-02-21T13:35:28;15.40;52.20
7708;DHT22;3896;48.758;8.888;2024-02-21T13:37:54;15.40;52.00
7708;DHT22;3896;48.758;8.888;2024-02-21T13:40:19;15.40;51.70
7708;DHT22;3896;48.758;8.888;2024-02-21T13:42:45;15.40;51.30
7708;DHT22;3896;48.758;8.888;2024-02-21T13:45:10;15.40;51.30
7708;DHT22;3896;48.758;8.888;2024-02-21T13:47:36;15.40;50.60
7708;DHT22;3896;48.758;8.888;2024-02-21T13:50:04;15.40;50.20
7708;DHT22;3896;48.758;8.888;2024-02-21T13:52:30;15.40;49.90
7708;DHT22;3896;48.758;8.888;2024-02-21T13:54:56;15.40;50.20
7708;DHT22;3896;48.758;8.888;2024-02-21T13:57:22;15.40;50.10
7708;DHT22;3896;48.758;8.888;2024-02-21T13:59:48;15.40;49.80
7708;DHT22;3896;48.758;8.888;2024-02-21T14:02:13;15.40;49.60
7708;DHT22;3896;48.758;8.888;2024-02-21T14:04:39;15.40;49.50
7708;DHT22;3896;48.758;8.888;2024-02-21T14:07:05;15.40;49.20
7708;DHT22;3896;48.758;8.888;2024-02-21T14:09:31;15.30;48.90
7708;DHT22;3896;48.758;8.888;2024-02-21T14:11:57;15.30;48.90
7708;DHT22;3896;48.758;8.888;2024-02-21T14:14:23;15.30;48.50
7708;DHT22;3896;48.758;8.888;2024-02-21T14:16:48;15.30;48.70
7708;DHT22;3896;48.758;8.888;2024-02-21T14:19:14;15.30;48.80
7708;DHT22;3896;48.758;8.888;2024-02-21T14:21:41;15.20;48.40
7708;DHT22;3896;48.758;8.888;2024-02-21T14:24:07;15.20;48.40
7708;DHT22;3896;48.758;8.888;2024-02-21T14:26:33;15.20;48.60
7708;DHT22;3896;48.758;8.888;2024-02-21T14:28:59;15.30;48.70
7708;DHT22;3896;48.758;8.888;2024-02-21T14:31:25;15.20;48.20
7708;DHT22;3896;48.758;8.888;2024-02-21T14:33:51;15.20;48.00
7708;DHT22;3896;48.758;8.888;2024-02-21T14:36:17;15.20;48.50
7708;DHT22;3896;48.758;8.888;2024-02-21T14:38:43;15.20;48.10
7708;DHT22;3896;48.758;8.888;2024-02-21T14:41:12;15.20;48.20
7708;DHT22;3896;48.758;8.888;2024-02-21T14:43:38;15.10;47.90
7708;DHT22;3896;48.758;8.888;2024-02-21T14:46:04;15.00;48.00
7708;DHT22;3896;48.758;8.888;2024-02-21T14:48:31;15.00;48.50
7708;DHT22;3896;48.758;8.888;2024-02-21T14:50:57;15.00;48.30
7708;DHT22;3896;48.758;8.888;2024-02-21T14:53:23;15.00;48.00
7708;DHT22;3896;48.758;8.888;2024-02-21T14:55:49;15.00;48.60
7708;DHT22;3896;48.758;8.888;2024-02-21T14:58:15;14.90;47.80
7708;DHT22;3896;48.758;8.888;2024-02-21T15:00:43;14.90;47.80
7708;DHT22;3896;48.758;8.888;2024-02-21T15:03:09;14.90;47.90
7708;DHT22;3896;48.758;8.888;2024-02-21T15:05:35;14.80;48.10
7708;DHT22;3896;48.758;8.888;2024-02-21T15:08:01;14.80;48.20
7708;DHT22;3896;48.758;8.888;2024-02-21T15:10:27;14.80;48.20
7708;DHT22;3896;48.758;8.888;2024-02-21T15:12:53;14.80;48.20
7708;DHT22;3896;48.758;8.888;2024-02-21T15:15:18;14.80;48.10
7708;DHT22;3896;48.758;8.888;2024-02-21T15:17:44;14.80;48.00
7708;DHT22;3896;48.758;8.888;2024-02-21T15:20:09;14.80;48.30
7708;DHT22;3896;48.758;8.888;2024-02-21T15:22:36;14.70;48.00
7708;DHT22;3896;48.758;8.888;2024-02-21T15:25:02;14.70;48.00
7708;DHT22;3896;48.758;8.888;2024-02-21T15:27:29;14.60;48.20
7708;DHT22;3896;48.758;8.888;2024-02-21T15:29:55;14.60;48.20
7708;DHT22;3896;48.758;8.888;2024-02-21T15:32:22;14.60;48.70
7708;DHT22;3896;48.758;8.888;2024-02-21T15:34:48;14.50;48.70
7708;DHT22;3896;48.758;8.888;2024-02-21T15:37:13;14.50;49.20
7708;DHT22;3896;48.758;8.888;2024-02-21T15:39:41;14.40;49.40
7708;DHT22;3896;48.758;8.888;2024-02-21T15:42:07;14.40;49.30
7708;DHT22;3896;48.758;8.888;2024-02-21T15:44:32;14.40;49.90
7708;DHT22;3896;48.758;8.888;2024-02-21T15:46:58;14.40;50.00
7708;DHT22;3896;48.758;8.888;2024-02-21T15:49:24;14.30;49.80
7708;DHT22;3896;48.758;8.888;2024-02-21T15:51:50;14.30;49.60
7708;DHT22;3896;48.758;8.888;2024-02-21T15:54:16;14.30;49.40
7708;DHT22;3896;48.758;8.888;2024-02-21T15:56:44;14.20;49.50
7708;DHT22;3896;48.758;8.888;2024-02-21T15:59:11;14.20;49.40
7708;DHT22;3896;48.758;8.888;2024-02-21T16:01:37;14.20;48.50
7708;DHT22;3896;48.758;8.888;2024-02-21T16:04:04;14.10;48.60
7708;DHT22;3896;48.758;8.888;2024-02-21T16:06:31;14.10;48.90
7708;DHT22;3896;48.758;8.888;2024-02-21T16:08:56;14.10;48.50
7708;DHT22;3896;48.758;8.888;2024-02-21T16:11:22;14.00;48.80
7708;DHT22;3896;48.758;8.888;2024-02-21T16:13:47;14.00;49.00
7708;DHT22;3896;48.758;8.888;2024-02-21T16:16:15;14.00;49.30
7708;DHT22;3896;48.758;8.888;2024-02-21T16:18:41;14.00;49.60
7708;DHT22;3896;48.758;8.888;2024-02-21T16:21:06;13.90;49.70
7708;DHT22;3896;48.758;8.888;2024-02-21T16:23:32;13.90;49.50
7708;DHT22;3896;48.758;8.888;2024-02-21T16:25:58;13.90;50.00
7708;DHT22;3896;48.758;8.888;2024-02-21T16:28:23;13.90;50.20
7708;DHT22;3896;48.758;8.888;2024-02-21T16:30:50;13.80;50.50